Hazlehurst Airport


Codes: KAZE/
Name: Hazlehurst Airport
City: Hazlehurst
Country: United States
Elevation: 255 ft.

Photos at Hazlehurst Airport


   Photos courtesy of SpottingLog. You can add your own sightings and photos by signing up for a free trial today.



No photos found.

Weather at Hazlehurst Airport


Time (UTC)DescriptionTempratureWindCloud coverageVisibilityPressureHumidity
26-Jun-2024 00:00Clear Sky38°C7 mph, 0%10000m1012hPa25%
26-Jun-2024 03:00Clear Sky35°C4 mph, SE6%10000m1012hPa31%
26-Jun-2024 06:00Few Clouds30°C7 mph, S24%10000m1012hPa46%
26-Jun-2024 09:00Clear Sky24°C4 mph, SW5%10000m1012hPa79%
26-Jun-2024 12:00Clear Sky26°C7 mph, W1%10000m1012hPa72%
26-Jun-2024 15:00Broken Clouds32°C7 mph, SW55%10000m1012hPa47%
26-Jun-2024 18:00Scattered Clouds38°C9 mph, SW29%10000m1010hPa27%
26-Jun-2024 21:00Scattered Clouds36°C16 mph, SW32%10000m1008hPa32%
27-Jun-2024 00:00Scattered Clouds33°C9 mph, SW31%10000m1008hPa39%
27-Jun-2024 03:00Clear Sky28°C9 mph, SW0%10000m1009hPa65%
27-Jun-2024 06:00Light Rain26°C9 mph, SW12%10000m1010hPa71%
27-Jun-2024 09:00Overcast Clouds24°C7 mph, SW85%10000m1009hPa81%
27-Jun-2024 12:00Overcast Clouds25°C9 mph, W92%10000m1010hPa78%
27-Jun-2024 15:00Overcast Clouds31°C11 mph, W100%10000m1011hPa53%
27-Jun-2024 18:00Overcast Clouds34°C9 mph, SW99%10000m1010hPa42%
27-Jun-2024 21:00Overcast Clouds35°C7 mph, SW99%10000m1008hPa36%
28-Jun-2024 00:00Overcast Clouds32°C11 mph, SW90%10000m1009hPa47%
28-Jun-2024 03:00Light Rain25°C9 mph, W47%10000m1011hPa80%
28-Jun-2024 06:00Light Rain23°C4 mph, SW37%10000m1011hPa89%
28-Jun-2024 09:00Clear Sky23°C7 mph, SW8%10000m1012hPa91%
28-Jun-2024 12:00Few Clouds25°C7 mph, SW12%10000m1013hPa82%
28-Jun-2024 15:00Broken Clouds30°C7 mph, SW79%10000m1015hPa59%
28-Jun-2024 18:00Scattered Clouds36°C7 mph, SW50%10000m1013hPa37%
28-Jun-2024 21:00Scattered Clouds37°C7 mph, SW37%10000m1012hPa32%
29-Jun-2024 00:00Scattered Clouds32°C9 mph, S46%10000m1013hPa47%
29-Jun-2024 03:00Light Rain27°C4 mph, SE16%10000m1015hPa69%
29-Jun-2024 06:00Scattered Clouds26°C4 mph, SW49%10000m1016hPa69%
29-Jun-2024 09:00Light Rain24°C4 mph, SW84%10000m1016hPa77%
29-Jun-2024 12:00Broken Clouds26°C2 mph, SW83%10000m1018hPa71%
29-Jun-2024 15:00Overcast Clouds33°C2 mph, SW94%10000m1018hPa47%
29-Jun-2024 18:00Overcast Clouds37°C4 mph, SW94%10000m1017hPa36%
29-Jun-2024 21:00Light Rain35°C2 mph, S93%10000m1016hPa43%
30-Jun-2024 00:00Overcast Clouds31°C7 mph, SE91%10000m1016hPa54%
30-Jun-2024 03:00Broken Clouds28°C11 mph, SE80%10000m1018hPa66%
30-Jun-2024 06:00Light Rain24°C4 mph, SE56%10000m1018hPa90%
30-Jun-2024 09:00Scattered Clouds24°C4 mph, S33%10000m1018hPa91%
30-Jun-2024 12:00Scattered Clouds26°C2 mph, S43%10000m1018hPa79%
30-Jun-2024 15:00Broken Clouds34°C4 mph, S72%10000m1018hPa49%
30-Jun-2024 18:00Broken Clouds38°C4 mph, S82%10000m1016hPa34%
30-Jun-2024 21:00Broken Clouds33°C11 mph, NW68%10000m1014hPa53%